^^
Your Local Weather - Clay, NY Station Historical Data
Daily Summary for March 7, 2017 Units:  English    Metric   Both
« Previous Day
Next Day »
Daily Weekly Monthly Yearly Custom
  High: Low: Average:
Temperature: 54.5 °F 37.8 °F 45.8 °F
Dew Point: 48.2 °F 22.5 °F 41.6 °F
Humidity: 94% 53% 86%
Wind Speed: 8.0mph 0.0mph 2.6mph
Wind Gust: 12.0mph - -
Wind- - SE
Pressure: 30.17 in 29.78 in -
Precipitation: 0.75 in    
Historical Graphs
 
 
Tabular Data for March 7, 2017
Time Temperature Dew Point Pressure Wind Wind Speed Wind Gust Humidity Rainfall Rate (Hourly) solar
00:02 38.2 °F 22.6 °F 30.17 in ENE 2.0 mph 2.0 mph 53% 0.00 in 0 W/m2
00:08 38.1 °F 22.5 °F 30.17 in East 2.0 mph 5.0 mph 53% 0.00 in 0 W/m2
00:14 38.2 °F 23.4 °F 30.17 in ENE 2.0 mph 3.0 mph 55% 0.00 in 0 W/m2
00:20 38.3 °F 22.6 °F 30.16 in ENE 2.0 mph 2.0 mph 53% 0.00 in 0 W/m2
00:26 37.9 °F 23.6 °F 30.16 in East 2.0 mph 3.0 mph 56% 0.00 in 0 W/m2
00:32 38.0 °F 23.3 °F 30.16 in East 2.0 mph 3.0 mph 55% 0.00 in 0 W/m2
00:38 38.0 °F 23.7 °F 30.16 in East 1.0 mph 3.0 mph 56% 0.00 in 0 W/m2
00:44 38.1 °F 24.6 °F 30.16 in ENE 1.0 mph 2.0 mph 58% 0.00 in 0 W/m2
00:50 38.1 °F 24.2 °F 30.16 in ENE 2.0 mph 2.0 mph 57% 0.00 in 0 W/m2
00:56 38.0 °F 24.9 °F 30.16 in ENE 1.0 mph 3.0 mph 59% 0.00 in 0 W/m2
01:02 38.0 °F 25.3 °F 30.16 in ENE 1.0 mph 1.0 mph 60% 0.00 in 0 W/m2
01:08 38.1 °F 25.4 °F 30.16 in ENE 1.0 mph 2.0 mph 60% 0.00 in 0 W/m2
01:14 37.8 °F 25.9 °F 30.16 in ENE 1.0 mph 1.0 mph 62% 0.00 in 0 W/m2
01:20 38.4 °F 27.7 °F 30.15 in SE 1.0 mph 1.0 mph 65% 0.00 in 0 W/m2
01:26 38.9 °F 28.9 °F 30.15 in SE 1.0 mph 2.0 mph 67% 0.00 in 0 W/m2
01:32 40.4 °F 32.8 °F 30.15 in SSE 1.0 mph 3.0 mph 74% 0.00 in 0 W/m2
01:38 42.5 °F 36.1 °F 30.15 in SE 3.0 mph 7.0 mph 78% 0.00 in 0 W/m2
01:44 43.3 °F 36.9 °F 30.15 in SE 4.0 mph 4.0 mph 78% 0.00 in 0 W/m2
01:50 43.6 °F 37.2 °F 30.15 in SE 5.0 mph 5.0 mph 78% 0.00 in 0 W/m2
01:56 43.6 °F 37.2 °F 30.15 in SSE 5.0 mph 6.0 mph 78% 0.00 in 0 W/m2
02:02 43.7 °F 37.3 °F 30.14 in SSE 4.0 mph 4.0 mph 78% 0.00 in 0 W/m2
02:08 43.9 °F 37.5 °F 30.14 in SSE 5.0 mph 8.0 mph 78% 0.00 in 0 W/m2
02:14 44.0 °F 37.3 °F 30.13 in SSE 4.0 mph 6.0 mph 77% 0.00 in 0 W/m2
02:20 43.8 °F 37.7 °F 30.13 in South 4.0 mph 4.0 mph 79% 0.00 in 0 W/m2
02:26 43.3 °F 37.9 °F 30.13 in SE 5.0 mph 6.0 mph 81% 0.12 in 0 W/m2
02:32 43.0 °F 38.2 °F 30.13 in SSE 4.0 mph 5.0 mph 83% 0.07 in 0 W/m2
02:38 42.6 °F 38.1 °F 30.13 in SE 3.0 mph 5.0 mph 84% 0.05 in 0 W/m2
02:44 41.7 °F 37.2 °F 30.13 in SE 3.0 mph 3.0 mph 84% 0.05 in 0 W/m2
02:50 40.8 °F 36.6 °F 30.12 in SE 2.0 mph 2.0 mph 85% 0.04 in 0 W/m2
02:56 40.4 °F 36.8 °F 30.12 in SE 2.0 mph 7.0 mph 87% 0.00 in 0 W/m2
03:02 41.6 °F 38.3 °F 30.12 in South 3.0 mph 3.0 mph 88% 0.00 in 0 W/m2
03:08 42.2 °F 38.9 °F 30.12 in SSE 4.0 mph 6.0 mph 88% 0.00 in 0 W/m2
03:14 42.3 °F 38.7 °F 30.12 in SE 4.0 mph 7.0 mph 87% 0.14 in 0 W/m2
03:20 42.3 °F 38.7 °F 30.11 in SE 5.0 mph 5.0 mph 87% 0.09 in 0 W/m2
03:26 41.8 °F 38.2 °F 30.11 in East 4.0 mph 5.0 mph 87% 0.05 in 0 W/m2
03:32 41.7 °F 38.4 °F 30.11 in SE 3.0 mph 3.0 mph 88% 0.00 in 0 W/m2
03:38 41.1 °F 37.8 °F 30.11 in SE 2.0 mph 5.0 mph 88% 0.00 in 0 W/m2
03:44 41.3 °F 38.3 °F 30.11 in SSE 2.0 mph 3.0 mph 89% 0.00 in 0 W/m2
03:50 41.1 °F 38.1 °F 30.11 in East 2.0 mph 2.0 mph 89% 0.08 in 0 W/m2
03:56 40.8 °F 37.8 °F 30.11 in East 1.0 mph 2.0 mph 89% 0.08 in 0 W/m2
04:02 40.5 °F 37.8 °F 30.11 in SE 1.0 mph 4.0 mph 90% 0.04 in 0 W/m2
04:08 40.2 °F 37.5 °F 30.11 in ESE 1.0 mph 4.0 mph 90% 0.00 in 0 W/m2
04:14 40.7 °F 38.0 °F 30.11 in SE 2.0 mph 3.0 mph 90% 0.10 in 0 W/m2
04:20 40.6 °F 37.9 °F 30.11 in East 2.0 mph 2.0 mph 90% 0.09 in 0 W/m2
04:26 40.7 °F 38.0 °F 30.11 in ESE 1.0 mph 2.0 mph 90% 0.06 in 0 W/m2
04:32 40.8 °F 38.4 °F 30.11 in SE 1.0 mph 4.0 mph 91% 0.06 in 0 W/m2
04:38 40.8 °F 38.4 °F 30.11 in SE 2.0 mph 4.0 mph 91% 0.04 in 0 W/m2
04:44 40.4 °F 38.0 °F 30.10 in ENE 1.0 mph 2.0 mph 91% 0.00 in 0 W/m2
04:50 40.2 °F 37.8 °F 30.11 in ENE 2.0 mph 2.0 mph 91% 0.00 in 0 W/m2
04:56 39.8 °F 37.4 °F 30.10 in ESE 1.0 mph 2.0 mph 91% 0.00 in 0 W/m2
05:02 40.3 °F 37.9 °F 30.10 in SE 2.0 mph 2.0 mph 91% 0.19 in 0 W/m2
05:08 40.6 °F 38.2 °F 30.10 in East 2.0 mph 4.0 mph 91% 0.20 in 0 W/m2
05:14 40.4 °F 38.0 °F 30.10 in East 2.0 mph 2.0 mph 91% 0.10 in 0 W/m2
05:20 40.3 °F 38.2 °F 30.10 in East 1.0 mph 1.0 mph 92% 0.05 in 0 W/m2
05:26 40.0 °F 37.9 °F 30.10 in ENE 2.0 mph 5.0 mph 92% 0.00 in 0 W/m2
05:32 39.9 °F 37.8 °F 30.10 in ENE 3.0 mph 6.0 mph 92% 0.00 in 0 W/m2
05:38 39.6 °F 37.5 °F 30.10 in ENE 3.0 mph 6.0 mph 92% 0.00 in 0 W/m2
05:44 39.4 °F 37.3 °F 30.10 in East 2.0 mph 3.0 mph 92% 0.00 in 0 W/m2
05:50 39.4 °F 37.3 °F 30.10 in East 2.0 mph 2.0 mph 92% 0.08 in 0 W/m2
05:56 39.2 °F 37.1 °F 30.10 in East 2.0 mph 3.0 mph 92% 0.08 in 0 W/m2
06:02 39.0 °F 36.9 °F 30.09 in East 3.0 mph 3.0 mph 92% 0.05 in 0 W/m2
06:08 38.9 °F 36.8 °F 30.09 in East 3.0 mph 3.0 mph 92% 0.05 in 0 W/m2
06:14 38.8 °F 36.7 °F 30.09 in ENE 3.0 mph 3.0 mph 92% 0.05 in 0 W/m2
06:20 38.8 °F 36.7 °F 30.09 in East 3.0 mph 5.0 mph 92% 0.00 in 0 W/m2
06:26 38.7 °F 36.6 °F 30.08 in East 3.0 mph 5.0 mph 92% 0.00 in 0 W/m2
06:32 38.6 °F 36.5 °F 30.08 in East 2.0 mph 5.0 mph 92% 0.00 in 0 W/m2
06:38 38.6 °F 36.5 °F 30.08 in ENE 2.0 mph 5.0 mph 92% 0.00 in 0 W/m2
06:44 38.7 °F 36.9 °F 30.08 in ENE 2.0 mph 3.0 mph 93% 0.00 in 0 W/m2
06:50 38.7 °F 36.6 °F 30.08 in ENE 2.0 mph 2.0 mph 92% 0.00 in 0 W/m2
06:56 38.5 °F 36.7 °F 30.08 in ENE 2.0 mph 3.0 mph 93% 0.00 in 0 W/m2
07:02 37.9 °F 35.8 °F 30.08 in ENE 1.0 mph 2.0 mph 92% 0.00 in 5 W/m2
07:08 38.0 °F 35.9 °F 30.08 in East 2.0 mph 4.0 mph 92% 0.00 in 5 W/m2
07:14 38.2 °F 36.4 °F 30.08 in ENE 3.0 mph 4.0 mph 93% 0.00 in 7 W/m2
07:20 38.1 °F 36.3 °F 30.08 in East 3.0 mph 3.0 mph 93% 0.00 in 9 W/m2
07:26 38.1 °F 36.3 °F 30.07 in ENE 2.0 mph 9.0 mph 93% 0.00 in 11 W/m2
07:32 38.1 °F 36.3 °F 30.07 in East 3.0 mph 5.0 mph 93% 0.00 in 12 W/m2
07:38 38.0 °F 36.2 °F 30.07 in East 2.0 mph 5.0 mph 93% 0.00 in 16 W/m2
07:44 38.0 °F 36.2 °F 30.07 in East 1.0 mph 2.0 mph 93% 0.00 in 21 W/m2
07:50 38.0 °F 36.2 °F 30.06 in ENE 1.0 mph 3.0 mph 93% 0.00 in 18 W/m2
07:56 38.0 °F 36.2 °F 30.06 in ENE 2.0 mph 3.0 mph 93% 0.00 in 28 W/m2
08:02 38.1 °F 36.3 °F 30.06 in ENE 2.0 mph 4.0 mph 93% 0.00 in 35 W/m2
08:08 38.2 °F 36.4 °F 30.06 in East 2.0 mph 4.0 mph 93% 0.00 in 33 W/m2
08:14 38.4 °F 36.6 °F 30.06 in ENE 3.0 mph 3.0 mph 93% 0.00 in 39 W/m2
08:20 38.5 °F 36.7 °F 30.06 in ENE 2.0 mph 3.0 mph 93% 0.00 in 51 W/m2
08:26 38.8 °F 36.9 °F 30.06 in ENE 2.0 mph 3.0 mph 93% 0.00 in 49 W/m2
08:32 39.0 °F 37.1 °F 30.05 in East 2.0 mph 2.0 mph 93% 0.00 in 44 W/m2
08:38 39.2 °F 37.3 °F 30.05 in SE 2.0 mph 4.0 mph 93% 0.00 in 40 W/m2
08:44 39.6 °F 37.7 °F 30.05 in ENE 2.0 mph 2.0 mph 93% 0.00 in 47 W/m2
08:50 39.7 °F 37.8 °F 30.05 in ENE 2.0 mph 2.0 mph 93% 0.00 in 58 W/m2
08:56 40.0 °F 38.1 °F 30.05 in ENE 1.0 mph 3.0 mph 93% 0.00 in 58 W/m2
09:02 40.4 °F 38.5 °F 30.05 in East 1.0 mph 3.0 mph 93% 0.00 in 40 W/m2
09:08 40.4 °F 38.5 °F 30.05 in ENE 1.0 mph 3.0 mph 93% 0.00 in 35 W/m2
09:14 40.6 °F 38.7 °F 30.04 in East 1.0 mph 2.0 mph 93% 0.00 in 35 W/m2
09:20 41.8 °F 39.9 °F 30.03 in SSE 2.0 mph 4.0 mph 93% 0.04 in 65 W/m2
09:26 44.2 °F 42.6 °F 30.03 in South 3.0 mph 9.0 mph 94% 0.04 in 62 W/m2
09:32 45.0 °F 43.1 °F 30.03 in SSE 5.0 mph 7.0 mph 93% 0.04 in 65 W/m2
09:38 45.3 °F 43.4 °F 30.03 in SSE 5.0 mph 7.0 mph 93% 0.00 in 65 W/m2
09:44 45.5 °F 43.6 °F 30.03 in SSE 5.0 mph 5.0 mph 93% 0.00 in 39 W/m2
09:50 45.6 °F 43.4 °F 30.03 in SE 4.0 mph 4.0 mph 92% 0.06 in 35 W/m2
09:56 45.7 °F 43.2 °F 30.02 in SE 4.0 mph 4.0 mph 91% 0.06 in 47 W/m2
10:02 46.0 °F 43.2 °F 30.02 in ESE 5.0 mph 8.0 mph 90% 0.05 in 53 W/m2
10:08 46.2 °F 43.1 °F 30.02 in SE 6.0 mph 8.0 mph 89% 0.00 in 40 W/m2
10:14 46.2 °F 43.1 °F 30.01 in SSE 5.0 mph 6.0 mph 89% 0.00 in 46 W/m2
10:20 46.2 °F 42.8 °F 30.01 in SSE 4.0 mph 4.0 mph 88% 0.00 in 35 W/m2
10:26 46.1 °F 43.0 °F 30.01 in SE 3.0 mph 4.0 mph 89% 0.00 in 40 W/m2
10:32 46.2 °F 43.1 °F 30.01 in SE 3.0 mph 6.0 mph 89% 0.00 in 42 W/m2
10:38 46.1 °F 43.0 °F 30.01 in East 2.0 mph 6.0 mph 89% 0.00 in 40 W/m2
10:44 46.0 °F 42.9 °F 30.01 in ENE 1.0 mph 1.0 mph 89% 0.00 in 46 W/m2
10:50 45.8 °F 42.7 °F 30.01 in ENE 1.0 mph 1.0 mph 89% 0.00 in 37 W/m2
10:56 45.8 °F 43.0 °F 30.01 in SSE 2.0 mph 3.0 mph 90% 0.00 in 42 W/m2
11:02 46.1 °F 43.3 °F 30.01 in East 2.0 mph 2.0 mph 90% 0.00 in 88 W/m2
11:08 45.2 °F 42.2 °F 30.01 in East 1.0 mph 2.0 mph 89% 0.14 in 114 W/m2
11:14 44.5 °F 41.7 °F 30.01 in NE 2.0 mph 2.0 mph 90% 0.06 in 72 W/m2
11:20 44.3 °F 41.6 °F 30.01 in NE 1.0 mph 1.0 mph 90% 0.04 in 56 W/m2
11:26 44.4 °F 41.9 °F 30.01 in Calm   1.0 mph 91% 0.29 in 72 W/m2
11:32 44.2 °F 41.7 °F 30.01 in NE 1.0 mph 2.0 mph 91% 0.17 in 84 W/m2
11:38 44.5 °F 42.0 °F 30.00 in NE 1.0 mph 2.0 mph 91% 0.28 in 54 W/m2
11:44 45.0 °F 42.8 °F 30.00 in ENE 2.0 mph 3.0 mph 92% 0.24 in 30 W/m2
11:50 44.9 °F 42.7 °F 30.00 in ESE 2.0 mph 2.0 mph 92% 1.21 in 32 W/m2
11:56 45.4 °F 43.2 °F 30.00 in East 1.0 mph 3.0 mph 92% 0.25 in 28 W/m2
12:02 45.9 °F 43.7 °F 30.00 in SE 1.0 mph 2.0 mph 92% 0.10 in 28 W/m2
12:08 46.1 °F 44.2 °F 29.99 in ESE 1.0 mph 2.0 mph 93% 0.06 in 35 W/m2
12:14 46.6 °F 44.4 °F 29.99 in SE 3.0 mph 6.0 mph 92% 0.42 in 42 W/m2
12:20 46.9 °F 45.0 °F 29.99 in SE 4.0 mph 4.0 mph 93% 0.33 in 40 W/m2
12:26 47.0 °F 44.8 °F 29.98 in SSE 3.0 mph 4.0 mph 92% 0.26 in 44 W/m2
12:32 47.1 °F 44.9 °F 29.98 in SSE 3.0 mph 4.0 mph 92% 0.14 in 42 W/m2
12:38 47.3 °F 45.1 °F 29.97 in SSE 3.0 mph 4.0 mph 92% 0.11 in 90 W/m2
12:44 47.5 °F 45.3 °F 29.97 in ESE 3.0 mph 5.0 mph 92% 0.06 in 97 W/m2
12:50 47.9 °F 45.4 °F 29.96 in SSE 2.0 mph 5.0 mph 91% 0.04 in 91 W/m2
12:56 48.1 °F 45.6 °F 29.96 in SSE 2.0 mph 5.0 mph 91% 0.00 in 65 W/m2
13:02 47.6 °F 44.8 °F 29.95 in ESE 1.0 mph 2.0 mph 90% 0.00 in 42 W/m2
13:08 47.2 °F 44.7 °F 29.95 in ESE 1.0 mph 3.0 mph 91% 0.00 in 49 W/m2
13:14 47.0 °F 44.5 °F 29.95 in East 1.0 mph 2.0 mph 91% 0.00 in 67 W/m2
13:20 46.4 °F 43.9 °F 29.94 in East 1.0 mph 1.0 mph 91% 0.00 in 62 W/m2
13:26 45.7 °F 43.2 °F 29.94 in East 1.0 mph 1.0 mph 91% 0.00 in 49 W/m2
13:32 45.5 °F 43.0 °F 29.94 in Calm   1.0 mph 91% 0.00 in 44 W/m2
13:38 45.5 °F 43.0 °F 29.94 in ENE 1.0 mph 3.0 mph 91% 0.00 in 58 W/m2
13:44 45.4 °F 43.2 °F 29.93 in East 1.0 mph 2.0 mph 92% 0.00 in 74 W/m2
13:50 46.1 °F 43.9 °F 29.93 in East 1.0 mph 1.0 mph 92% 0.00 in 79 W/m2
13:56 47.0 °F 44.8 °F 29.92 in SE 1.0 mph 1.0 mph 92% 0.00 in 86 W/m2
14:02 47.9 °F 45.7 °F 29.92 in SE 1.0 mph 2.0 mph 92% 0.00 in 79 W/m2
14:08 48.2 °F 46.0 °F 29.92 in ESE 1.0 mph 2.0 mph 92% 0.00 in 91 W/m2
14:14 48.3 °F 46.1 °F 29.92 in ESE 1.0 mph 1.0 mph 92% 0.00 in 105 W/m2
14:20 48.5 °F 46.3 °F 29.92 in ESE 1.0 mph 1.0 mph 92% 0.00 in 123 W/m2
14:26 49.0 °F 46.8 °F 29.92 in East 1.0 mph 2.0 mph 92% 0.00 in 104 W/m2
14:32 49.3 °F 46.8 °F 29.91 in East 1.0 mph 1.0 mph 91% 0.00 in 76 W/m2
14:38 49.1 °F 46.6 °F 29.91 in East 1.0 mph 2.0 mph 91% 0.00 in 54 W/m2
14:44 48.8 °F 46.3 °F 29.91 in East 1.0 mph 1.0 mph 91% 0.00 in 65 W/m2
14:50 48.4 °F 45.9 °F 29.91 in Calm   3.0 mph 91% 0.00 in 47 W/m2
14:56 47.6 °F 45.1 °F 29.91 in East 1.0 mph 3.0 mph 91% 0.00 in 58 W/m2
15:02 47.1 °F 44.6 °F 29.91 in East 1.0 mph 2.0 mph 91% 0.00 in 44 W/m2
15:08 47.2 °F 45.0 °F 29.91 in SE 1.0 mph 2.0 mph 92% 0.08 in 54 W/m2
15:14 47.6 °F 45.4 °F 29.90 in East 1.0 mph 2.0 mph 92% 0.06 in 56 W/m2
15:20 47.6 °F 45.4 °F 29.90 in SSW 1.0 mph 3.0 mph 92% 0.04 in 54 W/m2
15:26 48.3 °F 46.1 °F 29.90 in SSE 2.0 mph 3.0 mph 92% 0.00 in 69 W/m2
15:32 47.9 °F 45.4 °F 29.89 in SSE 1.0 mph 2.0 mph 91% 0.00 in 74 W/m2
15:38 47.9 °F 45.4 °F 29.89 in SSE 1.0 mph 4.0 mph 91% 0.00 in 49 W/m2
15:44 48.6 °F 46.4 °F 29.89 in SE 1.0 mph 1.0 mph 92% 0.00 in 42 W/m2
15:50 48.0 °F 45.5 °F 29.89 in SE 1.0 mph 1.0 mph 91% 0.00 in 44 W/m2
15:56 48.0 °F 45.8 °F 29.89 in SE 1.0 mph 3.0 mph 92% 0.00 in 40 W/m2
16:02 48.2 °F 46.0 °F 29.89 in SE 1.0 mph 1.0 mph 92% 0.00 in 44 W/m2
16:08 48.2 °F 46.0 °F 29.89 in Calm   1.0 mph 92% 0.04 in 42 W/m2
16:14 48.7 °F 46.5 °F 29.89 in Calm     92% 0.04 in 49 W/m2
16:20 49.5 °F 47.3 °F 29.89 in SSE 1.0 mph 6.0 mph 92% 0.04 in 37 W/m2
16:26 50.4 °F 48.2 °F 29.88 in SSE 2.0 mph 6.0 mph 92% 0.04 in 28 W/m2
16:32 50.7 °F 48.2 °F 29.88 in SSE 3.0 mph 6.0 mph 91% 0.11 in 21 W/m2
16:38 50.9 °F 47.8 °F 29.88 in SSE 3.0 mph 6.0 mph 89% 0.12 in 18 W/m2
16:44 50.8 °F 47.4 °F 29.88 in SSE 1.0 mph 3.0 mph 88% 0.11 in 19 W/m2
16:50 50.7 °F 47.3 °F 29.88 in SE 2.0 mph 2.0 mph 88% 0.05 in 11 W/m2
16:56 50.1 °F 46.7 °F 29.87 in ESE 1.0 mph 3.0 mph 88% 0.04 in 14 W/m2
17:02 49.9 °F 46.8 °F 29.87 in SSE 2.0 mph 4.0 mph 89% 0.08 in 9 W/m2
17:08 49.9 °F 46.8 °F 29.87 in SSE 2.0 mph 4.0 mph 89% 0.08 in 7 W/m2
17:14 49.9 °F 46.8 °F 29.87 in ESE 2.0 mph 3.0 mph 89% 0.06 in 11 W/m2
17:20 50.0 °F 47.2 °F 29.87 in ESE 2.0 mph 3.0 mph 90% 0.06 in 14 W/m2
17:26 50.0 °F 46.9 °F 29.88 in SE 2.0 mph 3.0 mph 89% 0.07 in 12 W/m2
17:32 50.2 °F 47.1 °F 29.87 in SE 2.0 mph 4.0 mph 89% 0.05 in 12 W/m2
17:38 50.3 °F 47.2 °F 29.87 in SE 4.0 mph 4.0 mph 89% 0.00 in 9 W/m2
17:44 50.3 °F 47.2 °F 29.87 in SSE 4.0 mph 4.0 mph 89% 0.00 in 11 W/m2
17:50 50.5 °F 47.1 °F 29.87 in South 3.0 mph 4.0 mph 88% 0.00 in 9 W/m2
17:56 50.5 °F 47.1 °F 29.87 in SSE 3.0 mph 4.0 mph 88% 0.00 in 5 W/m2
18:02 50.1 °F 46.7 °F 29.87 in SE 1.0 mph 2.0 mph 88% 0.00 in 0 W/m2
18:08 49.7 °F 46.3 °F 29.87 in SSE 1.0 mph 2.0 mph 88% 0.00 in 0 W/m2
18:14 49.0 °F 45.9 °F 29.88 in SE 1.0 mph 1.0 mph 89% 0.00 in 0 W/m2
18:20 49.1 °F 46.0 °F 29.89 in SSW 1.0 mph 3.0 mph 89% 0.00 in 0 W/m2
18:26 49.9 °F 46.8 °F 29.88 in SSE 2.0 mph 4.0 mph 89% 0.00 in 0 W/m2
18:32 50.3 °F 46.6 °F 29.89 in SSE 2.0 mph 7.0 mph 87% 0.00 in 0 W/m2
18:38 51.2 °F 46.8 °F 29.89 in SSE 2.0 mph 7.0 mph 85% 0.00 in 0 W/m2
18:44 51.6 °F 46.9 °F 29.89 in South 2.0 mph 2.0 mph 84% 0.00 in 0 W/m2
18:50 51.7 °F 46.7 °F 29.89 in South 2.0 mph 2.0 mph 83% 0.00 in 0 W/m2
18:56 51.7 °F 46.7 °F 29.89 in SSE 3.0 mph 3.0 mph 83% 0.00 in 0 W/m2
19:02 52.0 °F 47.0 °F 29.88 in South 3.0 mph 4.0 mph 83% 0.00 in 0 W/m2
19:08 52.4 °F 46.7 °F 29.88 in South 4.0 mph 5.0 mph 81% 0.00 in 0 W/m2
19:14 52.5 °F 46.8 °F 29.89 in South 3.0 mph 4.0 mph 81% 0.00 in 0 W/m2
19:20 52.5 °F 46.5 °F 29.88 in WSW 3.0 mph 3.0 mph 80% 0.00 in 0 W/m2
19:26 52.5 °F 46.8 °F 29.88 in SE 3.0 mph 3.0 mph 81% 0.00 in 0 W/m2
19:32 52.7 °F 46.7 °F 29.88 in South 3.0 mph 4.0 mph 80% 0.00 in 0 W/m2
19:38 52.7 °F 46.7 °F 29.87 in SW 3.0 mph 4.0 mph 80% 0.00 in 0 W/m2
19:44 52.6 °F 46.6 °F 29.87 in SSW 3.0 mph 4.0 mph 80% 0.00 in 0 W/m2
19:50 52.8 °F 46.8 °F 29.87 in South 2.0 mph 5.0 mph 80% 0.00 in 0 W/m2
19:56 52.8 °F 46.8 °F 29.86 in South 2.0 mph 5.0 mph 80% 0.00 in 0 W/m2
20:02 52.9 °F 46.9 °F 29.86 in SSE 3.0 mph 6.0 mph 80% 0.00 in 0 W/m2
20:08 53.0 °F 47.0 °F 29.86 in South 4.0 mph 8.0 mph 80% 0.00 in 0 W/m2
20:14 53.1 °F 47.1 °F 29.85 in SSE 4.0 mph 4.0 mph 80% 0.00 in 0 W/m2
20:20 53.2 °F 46.9 °F 29.84 in SSW 5.0 mph 5.0 mph 79% 0.00 in 0 W/m2
20:26 53.5 °F 46.8 °F 29.84 in SSE 6.0 mph 10.0 mph 78% 0.00 in 0 W/m2
20:32 53.4 °F 46.7 °F 29.84 in South 7.0 mph 7.0 mph 78% 0.00 in 0 W/m2
20:38 53.5 °F 46.8 °F 29.84 in SW 7.0 mph 10.0 mph 78% 0.00 in 0 W/m2
20:44 53.4 °F 47.0 °F 29.84 in WSW 6.0 mph 11.0 mph 79% 0.00 in 0 W/m2
20:50 53.6 °F 46.9 °F 29.84 in SSE 7.0 mph 9.0 mph 78% 0.00 in 0 W/m2
20:56 53.6 °F 46.9 °F 29.83 in South 7.0 mph 9.0 mph 78% 0.00 in 0 W/m2
21:02 53.5 °F 46.8 °F 29.83 in SSW 6.0 mph 8.0 mph 78% 0.00 in 0 W/m2
21:08 53.4 °F 46.7 °F 29.82 in SE 6.0 mph 8.0 mph 78% 0.00 in 0 W/m2
21:14 53.4 °F 46.7 °F 29.81 in South 6.0 mph 8.0 mph 78% 0.00 in 0 W/m2
21:20 53.5 °F 46.8 °F 29.82 in SSE 6.0 mph 9.0 mph 78% 0.00 in 0 W/m2
21:26 53.5 °F 47.1 °F 29.82 in SSE 7.0 mph 9.0 mph 79% 0.00 in 0 W/m2
21:32 53.4 °F 47.0 °F 29.81 in SW 6.0 mph 6.0 mph 79% 0.00 in 0 W/m2
21:38 53.6 °F 47.2 °F 29.81 in South 6.0 mph 10.0 mph 79% 0.00 in 0 W/m2
21:44 53.6 °F 47.2 °F 29.81 in SSW 7.0 mph 9.0 mph 79% 0.00 in 0 W/m2
21:50 53.6 °F 47.2 °F 29.80 in SSW 6.0 mph 6.0 mph 79% 0.00 in 0 W/m2
21:56 53.8 °F 47.1 °F 29.80 in South 7.0 mph 9.0 mph 78% 0.00 in 0 W/m2
22:02 53.7 °F 47.3 °F 29.80 in SSE 5.0 mph 6.0 mph 79% 0.00 in 0 W/m2
22:08 53.9 °F 47.2 °F 29.79 in WSW 6.0 mph 7.0 mph 78% 0.00 in 0 W/m2
22:14 54.0 °F 47.3 °F 29.78 in SW 6.0 mph 9.0 mph 78% 0.00 in 0 W/m2
22:20 54.1 °F 47.4 °F 29.78 in South 5.0 mph 5.0 mph 78% 0.00 in 0 W/m2
22:26 54.3 °F 47.6 °F 29.78 in SW 5.0 mph 9.0 mph 78% 0.00 in 0 W/m2
22:32 54.4 °F 47.7 °F 29.78 in SSE 5.0 mph 5.0 mph 78% 0.00 in 0 W/m2
22:38 54.4 °F 47.3 °F 29.79 in SW 4.0 mph 5.0 mph 77% 0.00 in 0 W/m2
22:44 54.4 °F 47.3 °F 29.79 in SSW 4.0 mph 6.0 mph 77% 0.00 in 0 W/m2
22:50 54.3 °F 47.6 °F 29.79 in South 4.0 mph 6.0 mph 78% 0.00 in 0 W/m2
22:56 54.3 °F 47.6 °F 29.78 in South 3.0 mph 6.0 mph 78% 0.00 in 0 W/m2
23:02 54.1 °F 47.4 °F 29.78 in South 2.0 mph 3.0 mph 78% 0.00 in 0 W/m2
23:08 54.3 °F 47.6 °F 29.78 in SSW 3.0 mph 5.0 mph 78% 0.00 in 0 W/m2
23:14 54.4 °F 47.7 °F 29.78 in SW 3.0 mph 5.0 mph 78% 0.00 in 0 W/m2
23:20 54.5 °F 47.8 °F 29.78 in SW 2.0 mph 2.0 mph 78% 0.00 in 0 W/m2
23:26 54.4 °F 47.7 °F 29.79 in West 3.0 mph 6.0 mph 78% 0.00 in 0 W/m2
23:32 53.6 °F 48.2 °F 29.79 in NW 4.0 mph 4.0 mph 82% 0.00 in 0 W/m2
23:38 52.5 °F 48.1 °F 29.81 in WNW 4.0 mph 4.0 mph 85% 0.00 in 0 W/m2
23:44 51.4 °F 47.4 °F 29.81 in NW 4.0 mph 6.0 mph 86% 0.10 in 0 W/m2
23:50 49.2 °F 44.9 °F 29.82 in WNW 5.0 mph 12.0 mph 85% 0.20 in 0 W/m2
23:56 46.3 °F 42.0 °F 29.84 in WNW 8.0 mph 12.0 mph 85% 0.24 in 0 W/m2
Country Meadow, Clay, NY, USA
Compliments of Weather Underground - 2 mb